createdAt,value
2023-04-08T00:01:23.231Z,3.64
2023-04-08T00:03:50.440Z,3.66
2023-04-08T00:06:17.608Z,3.63
2023-04-08T00:08:44.640Z,3.66
2023-04-08T00:11:11.736Z,3.70
2023-04-08T00:13:38.831Z,3.69
2023-04-08T00:16:06.167Z,3.72
2023-04-08T00:18:38.174Z,3.70
2023-04-08T00:21:05.288Z,3.63
2023-04-08T00:23:32.336Z,3.62
2023-04-08T00:25:59.432Z,3.62
2023-04-08T00:28:26.465Z,3.58
2023-04-08T00:30:54.592Z,3.48
2023-04-08T00:33:21.744Z,3.45
2023-04-08T00:35:49.767Z,3.66
2023-04-08T00:38:17.067Z,3.73
2023-04-08T00:40:44.238Z,3.74
2023-04-08T00:43:11.556Z,3.81
2023-04-08T00:45:38.911Z,3.74
2023-04-08T00:48:06.032Z,3.59
2023-04-08T00:50:33.285Z,3.55
2023-04-08T00:53:00.378Z,3.54
2023-04-08T00:55:27.449Z,3.49
2023-04-08T00:57:55.066Z,3.49
2023-04-08T01:00:24.360Z,3.52
2023-04-08T01:03:05.732Z,3.49
2023-04-08T01:05:38.947Z,3.47
2023-04-08T01:08:07.188Z,3.43
2023-04-08T01:10:37.747Z,3.44
2023-04-08T01:13:08.389Z,3.46
2023-04-08T01:15:37.102Z,3.47
2023-04-08T01:18:06.919Z,3.42
2023-04-08T01:20:34.669Z,3.39
2023-04-08T01:23:01.902Z,3.38
2023-04-08T01:25:36.687Z,3.46
2023-04-08T01:28:06.192Z,3.38
2023-04-08T01:30:34.269Z,3.41
2023-04-08T01:33:02.313Z,3.41
2023-04-08T01:35:30.799Z,3.38
2023-04-08T01:37:59.146Z,3.39
2023-04-08T01:40:26.520Z,3.36
2023-04-08T01:42:56.048Z,3.36
2023-04-08T01:45:24.006Z,3.35
2023-04-08T01:47:52.229Z,3.35
2023-04-08T01:50:19.722Z,3.35
2023-04-08T01:52:49.079Z,3.25
2023-04-08T01:55:16.873Z,3.32
2023-04-08T01:57:47.811Z,3.31
2023-04-08T02:00:16.423Z,3.28
2023-04-08T02:02:53.457Z,3.29
2023-04-08T02:05:20.724Z,3.29
2023-04-08T02:07:48.214Z,3.28
2023-04-08T02:10:15.836Z,3.28
2023-04-08T02:12:44.222Z,3.36
2023-04-08T02:15:12.291Z,3.34
2023-04-08T02:17:59.692Z,3.32
2023-04-08T02:20:26.784Z,3.28
2023-04-08T02:22:54.122Z,3.23
2023-04-08T02:25:24.320Z,3.26
2023-04-08T02:27:53.047Z,3.23
2023-04-08T02:30:21.679Z,3.25
2023-04-08T02:32:49.051Z,3.19
2023-04-08T02:35:16.513Z,3.19
2023-04-08T02:37:44.730Z,3.11
2023-04-08T02:40:27.936Z,3.16
2023-04-08T02:42:56.550Z,3.16
2023-04-08T02:45:27.348Z,3.10
2023-04-08T02:47:54.482Z,3.14
2023-04-08T02:50:21.633Z,3.11
2023-04-08T02:52:48.715Z,3.10
2023-04-08T02:55:16.753Z,3.08
2023-04-08T02:57:43.804Z,3.04
2023-04-08T03:00:11.295Z,3.03
2023-04-08T03:02:38.633Z,3.03
2023-04-08T03:05:06.065Z,3.01
2023-04-08T03:07:33.585Z,2.98
2023-04-08T03:10:00.800Z,2.91
2023-04-08T03:12:28.109Z,2.93
2023-04-08T03:14:55.401Z,2.92
2023-04-08T03:17:22.520Z,2.90
2023-04-08T03:19:49.643Z,2.91
2023-04-08T03:22:16.778Z,2.90
2023-04-08T03:24:43.868Z,2.90
2023-04-08T03:27:12.655Z,2.83
2023-04-08T03:29:40.184Z,2.85
2023-04-08T03:32:07.483Z,2.88
2023-04-08T03:34:35.471Z,2.84
2023-04-08T03:37:02.932Z,2.84
2023-04-08T03:39:30.036Z,2.85
2023-04-08T03:41:57.223Z,2.87
2023-04-08T03:44:24.460Z,2.85
2023-04-08T03:46:51.524Z,2.77
2023-04-08T03:49:18.674Z,2.85
2023-04-08T03:51:45.811Z,2.82
2023-04-08T03:54:12.860Z,2.77
2023-04-08T03:56:39.949Z,2.78
2023-04-08T03:59:07.048Z,2.74
2023-04-08T04:01:34.167Z,2.71
2023-04-08T04:04:01.861Z,2.67
2023-04-08T04:06:29.097Z,2.68
2023-04-08T04:08:56.266Z,2.71
2023-04-08T04:11:23.324Z,2.74
2023-04-08T04:13:50.366Z,2.74
2023-04-08T04:16:17.474Z,2.69
2023-04-08T04:18:44.712Z,2.78
2023-04-08T04:21:11.865Z,2.76
2023-04-08T04:23:38.944Z,2.78
2023-04-08T04:26:10.120Z,2.74
2023-04-08T04:28:37.533Z,2.67
2023-04-08T04:31:05.006Z,2.68
2023-04-08T04:33:32.204Z,2.73
2023-04-08T04:35:59.400Z,2.69
2023-04-08T04:38:27.055Z,2.70
2023-04-08T04:40:54.151Z,2.67
2023-04-08T04:43:21.308Z,2.62
2023-04-08T04:45:48.492Z,2.68
2023-04-08T04:48:15.687Z,2.66
2023-04-08T04:50:42.852Z,2.68
2023-04-08T04:53:09.975Z,2.66
2023-04-08T04:55:39.145Z,2.65
2023-04-08T04:58:06.661Z,2.67
2023-04-08T05:00:33.801Z,2.64
2023-04-08T05:03:01.225Z,2.63
2023-04-08T05:05:28.646Z,2.64
2023-04-08T05:07:55.856Z,2.70
2023-04-08T05:10:23.064Z,2.70
2023-04-08T05:12:50.374Z,2.72
2023-04-08T05:15:17.524Z,2.76
2023-04-08T05:17:44.699Z,2.77
2023-04-08T05:20:11.804Z,2.77
2023-04-08T05:22:39.060Z,2.82
2023-04-08T05:25:06.484Z,2.83
2023-04-08T05:27:33.666Z,2.82
2023-04-08T05:30:00.881Z,2.87
2023-04-08T05:32:29.578Z,2.94
2023-04-08T05:34:56.838Z,2.92
2023-04-08T05:37:23.901Z,2.92
2023-04-08T05:39:51.310Z,2.95
2023-04-08T05:42:18.361Z,2.97
2023-04-08T05:44:45.688Z,3.01
2023-04-08T05:47:13.133Z,3.00
2023-04-08T05:49:40.381Z,3.00
2023-04-08T05:52:07.539Z,2.98
2023-04-08T05:54:34.601Z,3.02
2023-04-08T05:57:01.825Z,2.99
2023-04-08T05:59:28.879Z,2.98
2023-04-08T06:01:57.035Z,2.99
2023-04-08T06:04:24.623Z,2.99
2023-04-08T06:06:51.761Z,2.92
2023-04-08T06:09:18.902Z,2.95
2023-04-08T06:11:47.346Z,2.95
2023-04-08T06:14:14.482Z,2.98
2023-04-08T06:16:41.672Z,2.90
2023-04-08T06:19:08.910Z,2.85
2023-04-08T06:21:36.347Z,2.85
2023-04-08T06:24:03.519Z,2.77
2023-04-08T06:26:30.557Z,2.74
2023-04-08T06:28:57.651Z,2.72
2023-04-08T06:31:24.841Z,2.63
2023-04-08T06:33:52.444Z,2.66
2023-04-08T06:36:19.541Z,2.59
2023-04-08T06:38:46.628Z,2.47
2023-04-08T06:41:13.657Z,2.51
2023-04-08T06:43:40.686Z,2.55
2023-04-08T06:46:18.976Z,2.57
2023-04-08T06:48:48.817Z,2.52
2023-04-08T06:51:15.979Z,2.49
2023-04-08T06:53:43.109Z,2.51
2023-04-08T06:56:10.211Z,2.52
2023-04-08T06:58:37.343Z,2.36
2023-04-08T07:01:05.011Z,2.35
2023-04-08T07:03:32.498Z,2.48
2023-04-08T07:05:59.794Z,2.48
2023-04-08T07:08:27.326Z,2.47
2023-04-08T07:10:54.447Z,2.42
2023-04-08T07:13:21.554Z,2.43
2023-04-08T07:15:48.648Z,2.44
2023-04-08T07:18:15.726Z,2.37
2023-04-08T07:20:42.813Z,2.30
2023-04-08T07:23:09.897Z,2.34
2023-04-08T07:25:37.050Z,2.34
2023-04-08T07:28:04.197Z,2.30
2023-04-08T07:30:31.350Z,2.38
2023-04-08T07:33:00.707Z,2.28
2023-04-08T07:35:28.492Z,2.32
2023-04-08T07:37:55.751Z,2.28
2023-04-08T07:40:22.912Z,2.27
2023-04-08T07:42:50.283Z,2.26
2023-04-08T07:45:17.471Z,2.30
2023-04-08T07:47:44.639Z,2.28
2023-04-08T07:50:11.954Z,2.31
2023-04-08T07:52:39.050Z,2.26
2023-04-08T07:55:06.510Z,2.28
2023-04-08T07:57:33.830Z,2.31
2023-04-08T08:00:01.115Z,2.41
2023-04-08T08:02:28.448Z,2.37
2023-04-08T08:04:55.937Z,2.46
2023-04-08T08:07:23.012Z,2.49
2023-04-08T08:09:50.279Z,2.48
2023-04-08T08:12:17.587Z,2.49
2023-04-08T08:14:44.707Z,2.51
2023-04-08T08:17:12.773Z,2.62
2023-04-08T08:19:40.012Z,2.62
2023-04-08T08:22:07.142Z,2.62
2023-04-08T08:24:34.333Z,2.62
2023-04-08T08:27:02.798Z,2.58
2023-04-08T08:29:29.917Z,2.57
2023-04-08T08:31:56.955Z,2.60
2023-04-08T08:34:23.998Z,2.69
2023-04-08T08:36:51.346Z,2.73
2023-04-08T08:39:18.367Z,2.71
2023-04-08T08:41:46.038Z,2.71
2023-04-08T08:44:13.287Z,2.71
2023-04-08T08:46:44.351Z,2.67
2023-04-08T08:49:12.407Z,2.75
2023-04-08T08:51:40.442Z,2.76
2023-04-08T08:54:08.494Z,2.69
2023-04-08T08:56:35.781Z,2.76
2023-04-08T08:59:02.863Z,2.78
2023-04-08T09:01:30.076Z,2.85
2023-04-08T09:04:11.491Z,2.94
2023-04-08T09:06:38.878Z,2.95
2023-04-08T09:09:10.606Z,2.97
2023-04-08T09:11:39.884Z,3.02
2023-04-08T09:14:22.977Z,3.09
2023-04-08T09:16:51.087Z,3.07
2023-04-08T09:19:18.838Z,3.04
2023-04-08T09:21:46.062Z,3.11
2023-04-08T09:24:30.339Z,3.17
2023-04-08T09:26:57.679Z,3.22
2023-04-08T09:29:26.965Z,3.24
2023-04-08T09:31:56.702Z,3.33
2023-04-08T09:34:24.411Z,3.37
2023-04-08T09:36:52.136Z,3.40
2023-04-08T09:39:19.559Z,3.37
2023-04-08T09:41:48.913Z,3.44
2023-04-08T09:44:20.572Z,3.46
2023-04-08T09:46:47.814Z,3.55
2023-04-08T09:49:27.264Z,3.60
2023-04-08T09:52:03.452Z,3.67
2023-04-08T09:54:49.205Z,3.98
2023-04-08T09:57:17.428Z,3.62
2023-04-08T09:59:48.993Z,3.18
2023-04-08T10:02:19.956Z,3.59
2023-04-08T10:04:48.967Z,3.86
2023-04-08T10:07:16.134Z,3.87
2023-04-08T10:09:43.712Z,3.90
2023-04-08T10:12:10.765Z,3.84
2023-04-08T10:14:39.068Z,3.79
2023-04-08T10:17:27.481Z,3.76
2023-04-08T10:19:54.708Z,3.61
2023-04-08T10:22:34.224Z,3.59
2023-04-08T10:25:17.053Z,3.64
2023-04-08T10:27:44.834Z,3.68
2023-04-08T10:30:33.368Z,3.62
2023-04-08T10:33:00.887Z,3.66
2023-04-08T10:35:31.966Z,3.72
2023-04-08T10:37:59.314Z,3.78
2023-04-08T10:40:26.740Z,3.81
2023-04-08T10:42:57.551Z,3.79
2023-04-08T10:45:24.911Z,3.83
2023-04-08T10:47:52.292Z,3.86
2023-04-08T10:50:20.393Z,3.88
2023-04-08T10:52:50.936Z,3.79
2023-04-08T10:55:25.256Z,3.81
2023-04-08T10:57:52.656Z,3.87
2023-04-08T11:00:20.508Z,3.86
2023-04-08T11:02:47.973Z,3.79
2023-04-08T11:05:15.192Z,3.87
2023-04-08T11:07:42.451Z,3.92
2023-04-08T11:10:09.887Z,3.95
2023-04-08T11:12:37.442Z,3.99
2023-04-08T11:15:04.964Z,4.01
2023-04-08T11:17:34.291Z,4.07
2023-04-08T11:20:06.228Z,3.91
2023-04-08T11:22:36.394Z,3.96
2023-04-08T11:25:03.711Z,4.02
2023-04-08T11:27:30.998Z,3.98
2023-04-08T11:29:59.320Z,4.05
2023-04-08T11:32:26.852Z,4.06
2023-04-08T11:34:53.898Z,4.11
2023-04-08T11:37:21.232Z,4.17
2023-04-08T11:39:48.338Z,4.20
2023-04-08T11:42:31.538Z,4.20
2023-04-08T11:44:58.918Z,4.19
2023-04-08T11:47:31.988Z,4.24
2023-04-08T11:49:59.521Z,4.15
2023-04-08T11:52:45.600Z,4.10
2023-04-08T11:55:13.381Z,4.25
2023-04-08T11:57:40.525Z,4.18
2023-04-08T12:00:07.914Z,4.22
2023-04-08T12:02:38.074Z,4.28
2023-04-08T12:05:05.507Z,4.28
2023-04-08T12:07:32.670Z,4.29
2023-04-08T12:09:59.859Z,4.26
2023-04-08T12:12:26.952Z,4.35
2023-04-08T12:14:54.690Z,4.25
2023-04-08T12:17:21.844Z,4.45
2023-04-08T12:19:49.020Z,4.47
2023-04-08T12:22:16.748Z,4.40
2023-04-08T12:24:44.300Z,4.45
2023-04-08T12:27:11.527Z,4.35
2023-04-08T12:29:39.273Z,4.44
2023-04-08T12:32:06.415Z,4.47
2023-04-08T12:34:33.504Z,4.55
2023-04-08T12:37:00.876Z,4.67
2023-04-08T12:39:28.400Z,4.77
2023-04-08T12:41:55.477Z,4.83
2023-04-08T12:44:22.667Z,4.84
2023-04-08T12:46:49.920Z,4.74
2023-04-08T12:49:17.291Z,4.78
2023-04-08T12:51:44.381Z,4.87
2023-04-08T12:54:11.452Z,4.88
2023-04-08T12:56:39.326Z,4.91
2023-04-08T12:59:06.414Z,4.93
2023-04-08T13:01:33.582Z,4.80
2023-04-08T13:04:00.786Z,4.85
2023-04-08T13:06:28.178Z,4.84
2023-04-08T13:08:55.489Z,4.73
2023-04-08T13:11:22.547Z,4.74
2023-04-08T13:13:49.657Z,4.80
2023-04-08T13:16:16.950Z,4.83
2023-04-08T13:18:44.059Z,4.88
2023-04-08T13:21:11.303Z,4.91
2023-04-08T13:23:38.907Z,4.97
2023-04-08T13:26:06.753Z,5.01
2023-04-08T13:28:40.743Z,4.99
2023-04-08T13:31:17.109Z,5.00
2023-04-08T13:33:44.202Z,5.06
2023-04-08T13:36:11.314Z,5.00
2023-04-08T13:38:38.384Z,5.06
2023-04-08T13:41:05.586Z,5.03
2023-04-08T13:43:32.724Z,5.07
2023-04-08T13:45:59.867Z,4.85
2023-04-08T13:48:26.995Z,4.89
2023-04-08T13:50:54.051Z,4.94
2023-04-08T13:53:21.240Z,4.95
2023-04-08T13:55:48.438Z,5.01
2023-04-08T13:58:23.266Z,5.01
2023-04-08T14:00:51.936Z,5.06
2023-04-08T14:03:20.250Z,5.08
2023-04-08T14:05:47.635Z,5.04
2023-04-08T14:08:14.687Z,5.14
2023-04-08T14:10:42.328Z,5.11
2023-04-08T14:13:09.545Z,5.11
2023-04-08T14:15:36.685Z,5.12
2023-04-08T14:18:03.940Z,5.18
2023-04-08T14:20:31.290Z,5.12
2023-04-08T14:22:58.360Z,5.16
2023-04-08T14:25:25.835Z,5.28
2023-04-08T14:27:58.580Z,5.27
2023-04-08T14:30:27.384Z,5.30
2023-04-08T14:32:54.742Z,5.30
2023-04-08T14:35:21.975Z,5.44
2023-04-08T14:37:49.102Z,5.41
2023-04-08T14:40:16.474Z,5.40
2023-04-08T14:42:45.471Z,5.40
2023-04-08T14:45:13.272Z,5.43
2023-04-08T14:47:40.756Z,5.44
2023-04-08T14:50:08.077Z,5.35
2023-04-08T14:52:35.299Z,5.28
2023-04-08T14:57:47.329Z,5.32
2023-04-08T15:00:14.669Z,5.26
2023-04-08T15:02:41.823Z,5.26
2023-04-08T15:05:09.230Z,5.32
2023-04-08T15:07:36.755Z,5.31
2023-04-08T15:10:03.917Z,5.44
2023-04-08T15:12:32.870Z,5.41
2023-04-08T15:15:00.069Z,5.43
2023-04-08T15:17:27.204Z,5.51
2023-04-08T15:19:54.549Z,5.42
2023-04-08T15:22:21.739Z,5.46
2023-04-08T15:24:48.878Z,5.37
2023-04-08T15:27:16.062Z,5.51
2023-04-08T15:29:43.189Z,5.41
2023-04-08T15:32:10.285Z,5.52
2023-04-08T15:34:37.402Z,5.51
2023-04-08T15:37:04.487Z,5.33
2023-04-08T15:39:31.732Z,5.34
2023-04-08T15:41:58.767Z,5.46
2023-04-08T15:44:25.854Z,5.31
2023-04-08T15:46:53.302Z,5.23
2023-04-08T15:49:21.404Z,5.20
2023-04-08T15:51:50.750Z,5.18
2023-04-08T15:54:17.847Z,5.27
2023-04-08T15:56:46.579Z,5.36
2023-04-08T15:59:14.053Z,5.29
2023-04-08T16:01:41.990Z,5.32
2023-04-08T16:04:11.292Z,5.33
2023-04-08T16:06:38.475Z,5.32
2023-04-08T16:09:06.505Z,5.33
2023-04-08T16:11:34.053Z,5.21
2023-04-08T16:14:01.799Z,5.26
2023-04-08T16:16:29.644Z,5.27
2023-04-08T16:18:56.791Z,5.35
2023-04-08T16:21:24.176Z,5.39
2023-04-08T16:23:51.628Z,5.35
2023-04-08T16:26:19.088Z,5.36
2023-04-08T16:28:46.172Z,5.33
2023-04-08T16:31:13.253Z,5.37
2023-04-08T16:33:40.445Z,5.41
2023-04-08T16:36:07.627Z,5.46
2023-04-08T16:38:35.501Z,5.40
2023-04-08T16:41:06.061Z,5.41
2023-04-08T16:43:33.150Z,5.42
2023-04-08T16:46:00.270Z,5.44
2023-04-08T16:48:27.782Z,5.44
2023-04-08T16:50:54.915Z,5.46
2023-04-08T16:53:22.004Z,5.44
2023-04-08T16:55:49.123Z,5.41
2023-04-08T16:58:16.146Z,5.39
2023-04-08T17:00:43.226Z,5.36
2023-04-08T17:03:10.790Z,5.40
2023-04-08T17:05:38.699Z,5.41
2023-04-08T17:08:06.111Z,5.27
2023-04-08T17:10:33.480Z,5.30
2023-04-08T17:13:00.664Z,5.27
2023-04-08T17:15:27.820Z,5.27
2023-04-08T17:17:55.019Z,5.26
2023-04-08T17:20:22.157Z,5.26
2023-04-08T17:22:49.337Z,5.23
2023-04-08T17:25:16.493Z,5.23
2023-04-08T17:27:43.618Z,5.16
2023-04-08T17:30:11.588Z,5.17
2023-04-08T17:32:38.776Z,5.20
2023-04-08T17:35:06.287Z,5.19
2023-04-08T17:37:33.509Z,5.14
2023-04-08T17:40:00.686Z,5.12
2023-04-08T17:42:27.851Z,5.09
2023-04-08T17:44:56.049Z,5.10
2023-04-08T17:47:23.303Z,5.08
2023-04-08T17:49:53.932Z,5.04
2023-04-08T17:52:21.025Z,4.98
2023-04-08T17:54:48.210Z,4.97
2023-04-08T17:57:15.306Z,4.98
2023-04-08T17:59:42.372Z,4.94
2023-04-08T18:02:09.506Z,4.89
2023-04-08T18:04:36.665Z,4.91
2023-04-08T18:07:05.351Z,4.89
2023-04-08T18:09:32.515Z,4.86
2023-04-08T18:11:59.670Z,4.84
2023-04-08T18:14:28.399Z,4.83
2023-04-08T18:16:55.581Z,4.82
2023-04-08T18:19:24.699Z,4.77
2023-04-08T18:21:51.843Z,4.85
2023-04-08T18:24:20.162Z,4.85
2023-04-08T18:26:54.293Z,4.77
2023-04-08T18:29:24.999Z,4.80
2023-04-08T18:31:52.084Z,4.81
2023-04-08T18:34:20.777Z,4.80
2023-04-08T18:36:47.848Z,4.81
2023-04-08T18:39:14.934Z,4.82
2023-04-08T18:41:42.788Z,4.82
2023-04-08T18:44:09.987Z,4.86
2023-04-08T18:46:37.209Z,4.87
2023-04-08T18:49:04.428Z,4.79
2023-04-08T18:51:31.493Z,4.75
2023-04-08T18:53:59.218Z,4.75
2023-04-08T18:56:26.672Z,4.68
2023-04-08T18:58:54.736Z,4.73
2023-04-08T19:01:22.239Z,4.75
2023-04-08T19:03:49.566Z,4.72
2023-04-08T19:06:17.428Z,4.72
2023-04-08T19:08:46.522Z,4.72
2023-04-08T19:11:15.643Z,4.77
2023-04-08T19:13:42.754Z,4.75
2023-04-08T19:16:10.918Z,4.74
2023-04-08T19:18:38.009Z,4.61
2023-04-08T19:21:05.121Z,4.62
2023-04-08T19:23:32.413Z,4.59
2023-04-08T19:25:59.559Z,4.59
2023-04-08T19:28:26.695Z,4.57
2023-04-08T19:30:53.849Z,4.55
2023-04-08T19:33:21.128Z,4.51
2023-04-08T19:35:48.519Z,4.44
2023-04-08T19:38:15.915Z,4.46
2023-04-08T19:40:43.014Z,4.45
2023-04-08T19:43:10.255Z,4.43
2023-04-08T19:45:37.420Z,4.41
2023-04-08T19:48:04.548Z,4.41
2023-04-08T19:50:31.943Z,4.37
2023-04-08T19:52:59.377Z,4.37
2023-04-08T19:55:26.662Z,4.33
2023-04-08T19:57:54.320Z,4.30
2023-04-08T20:00:21.811Z,4.29
2023-04-08T20:02:49.226Z,4.45
2023-04-08T20:05:17.351Z,4.44
2023-04-08T20:07:44.403Z,4.30
2023-04-08T20:10:12.395Z,4.25
2023-04-08T20:12:40.910Z,4.22
2023-04-08T20:15:13.543Z,4.21
2023-04-08T20:17:47.257Z,4.16
2023-04-08T20:20:14.451Z,4.10
2023-04-08T20:22:41.878Z,4.12
2023-04-08T20:25:08.929Z,4.08
2023-04-08T20:27:36.640Z,4.05
2023-04-08T20:30:03.903Z,4.12
2023-04-08T20:32:31.007Z,4.19
2023-04-08T20:34:59.740Z,4.22
2023-04-08T20:37:28.587Z,4.24
2023-04-08T20:39:55.679Z,4.25
2023-04-08T20:42:22.831Z,4.22
2023-04-08T20:44:49.908Z,4.16
2023-04-08T20:47:16.999Z,4.08
2023-04-08T20:49:44.153Z,4.09
2023-04-08T20:52:11.248Z,4.13
2023-04-08T20:54:38.349Z,4.14
2023-04-08T20:57:05.434Z,4.19
2023-04-08T20:59:33.378Z,4.18
2023-04-08T21:02:01.266Z,4.11
2023-04-08T21:04:28.487Z,4.04
2023-04-08T21:06:55.608Z,4.06
2023-04-08T21:09:22.643Z,4.12
2023-04-08T21:11:49.741Z,4.10
2023-04-08T21:14:16.788Z,4.13
2023-04-08T21:16:43.972Z,4.14
2023-04-08T21:19:11.155Z,4.13
2023-04-08T21:21:38.322Z,4.19
2023-04-08T21:24:07.104Z,4.14
2023-04-08T21:26:34.197Z,4.14
2023-04-08T21:29:01.381Z,4.20
2023-04-08T21:31:30.216Z,4.15
2023-04-08T21:33:57.375Z,4.13
2023-04-08T21:36:24.570Z,4.12
2023-04-08T21:38:51.829Z,4.06
2023-04-08T21:41:19.131Z,4.06
2023-04-08T21:43:46.898Z,4.09
2023-04-08T21:46:14.044Z,4.12
2023-04-08T21:48:41.134Z,4.10
2023-04-08T21:51:08.510Z,4.06
2023-04-08T21:53:35.640Z,4.07
2023-04-08T21:56:02.679Z,4.05
2023-04-08T21:58:29.743Z,4.04
2023-04-08T22:00:56.898Z,4.07
2023-04-08T22:03:24.084Z,4.08
2023-04-08T22:05:51.458Z,4.08
2023-04-08T22:08:18.496Z,4.02
2023-04-08T22:10:45.710Z,4.03
2023-04-08T22:13:14.289Z,4.08
2023-04-08T22:15:41.329Z,4.06
2023-04-08T22:18:08.539Z,4.05
2023-04-08T22:20:36.573Z,3.99
2023-04-08T22:23:03.818Z,3.99
2023-04-08T22:25:30.851Z,3.90
2023-04-08T22:27:57.942Z,3.91
2023-04-08T22:30:25.009Z,3.79
2023-04-08T22:32:52.272Z,3.85
2023-04-08T22:35:19.547Z,3.82
2023-04-08T22:37:46.709Z,3.78
2023-04-08T22:40:13.849Z,3.79
2023-04-08T22:42:40.926Z,3.72
2023-04-08T22:45:08.124Z,3.72
2023-04-08T22:47:35.360Z,3.72
2023-04-08T22:50:02.431Z,3.71
2023-04-08T22:52:29.543Z,3.72
2023-04-08T22:54:56.621Z,3.79
2023-04-08T22:57:23.653Z,3.88
2023-04-08T22:59:50.733Z,3.87
2023-04-08T23:02:18.103Z,3.83
2023-04-08T23:04:45.831Z,3.82
2023-04-08T23:07:12.944Z,3.89
2023-04-08T23:09:40.350Z,3.90
2023-04-08T23:12:07.527Z,3.93
2023-04-08T23:14:34.750Z,3.85
2023-04-08T23:17:03.077Z,3.85
2023-04-08T23:19:32.229Z,3.88
2023-04-08T23:21:59.305Z,3.88
2023-04-08T23:24:26.558Z,3.76
2023-04-08T23:26:53.687Z,3.75
2023-04-08T23:29:20.719Z,3.84
2023-04-08T23:31:47.867Z,3.87
2023-04-08T23:34:15.005Z,3.83
2023-04-08T23:36:42.096Z,3.77
2023-04-08T23:39:09.210Z,3.82
2023-04-08T23:41:36.414Z,3.70
2023-04-08T23:44:03.549Z,3.76
2023-04-08T23:46:30.811Z,3.81
2023-04-08T23:48:57.946Z,3.84
2023-04-08T23:51:25.054Z,3.72
2023-04-08T23:53:52.209Z,3.72
2023-04-08T23:56:19.616Z,3.71
2023-04-08T23:58:46.780Z,3.69
